sensor_id;sensor_type;location;lat;lon;timestamp;temperature;humidity
52979;DHT22;51106;53.186;6.598;2022-08-21T00:00:45;16.00;99.90
52979;DHT22;51106;53.186;6.598;2022-08-21T00:02:56;16.00;99.90
52979;DHT22;51106;53.186;6.598;2022-08-21T00:04:59;16.00;99.90
52979;DHT22;51106;53.186;6.598;2022-08-21T00:07:01;15.90;99.90
52979;DHT22;51106;53.186;6.598;2022-08-21T00:09:07;15.90;99.90
52979;DHT22;51106;53.186;6.598;2022-08-21T00:11:09;15.90;99.90
52979;DHT22;51106;53.186;6.598;2022-08-21T00:13:12;15.90;99.90
52979;DHT22;51106;53.186;6.598;2022-08-21T00:15:24;15.90;99.90
52979;DHT22;51106;53.186;6.598;2022-08-21T00:17:28;15.80;99.90
52979;DHT22;51106;53.186;6.598;2022-08-21T00:19:31;15.80;99.90
52979;DHT22;51106;53.186;6.598;2022-08-21T00:21:34;15.80;99.90
52979;DHT22;51106;53.186;6.598;2022-08-21T00:23:37;15.80;99.90
52979;DHT22;51106;53.186;6.598;2022-08-21T00:25:39;15.90;99.90
52979;DHT22;51106;53.186;6.598;2022-08-21T00:27:42;15.80;99.90
52979;DHT22;51106;53.186;6.598;2022-08-21T00:29:44;15.80;99.90
52979;DHT22;51106;53.186;6.598;2022-08-21T00:31:46;15.80;99.90
52979;DHT22;51106;53.186;6.598;2022-08-21T00:33:48;15.80;99.90
52979;DHT22;51106;53.186;6.598;2022-08-21T00:35:51;15.80;99.90
52979;DHT22;51106;53.186;6.598;2022-08-21T00:37:53;15.80;99.90
52979;DHT22;51106;53.186;6.598;2022-08-21T00:39:56;15.70;99.90
52979;DHT22;51106;53.186;6.598;2022-08-21T00:41:58;15.70;99.90
52979;DHT22;51106;53.186;6.598;2022-08-21T00:44:00;15.70;99.90
52979;DHT22;51106;53.186;6.598;2022-08-21T00:46:05;15.60;99.90
52979;DHT22;51106;53.186;6.598;2022-08-21T00:48:07;15.60;99.90
52979;DHT22;51106;53.186;6.598;2022-08-21T00:50:10;15.60;99.90
52979;DHT22;51106;53.186;6.598;2022-08-21T00:52:25;15.60;99.90
52979;DHT22;51106;53.186;6.598;2022-08-21T00:54:30;15.50;99.90
52979;DHT22;51106;53.186;6.598;2022-08-21T00:56:32;15.50;99.90
52979;DHT22;51106;53.186;6.598;2022-08-21T00:58:36;15.50;99.90
52979;DHT22;51106;53.186;6.598;2022-08-21T01:00:40;15.40;99.90
52979;DHT22;51106;53.186;6.598;2022-08-21T01:02:43;15.40;99.90
52979;DHT22;51106;53.186;6.598;2022-08-21T01:04:45;15.40;99.90
52979;DHT22;51106;53.186;6.598;2022-08-21T01:06:47;15.40;99.90
52979;DHT22;51106;53.186;6.598;2022-08-21T01:08:50;15.50;99.90
52979;DHT22;51106;53.186;6.598;2022-08-21T01:10:53;15.50;99.90
52979;DHT22;51106;53.186;6.598;2022-08-21T01:12:56;15.40;99.90
52979;DHT22;51106;53.186;6.598;2022-08-21T01:15:02;15.30;99.90
52979;DHT22;51106;53.186;6.598;2022-08-21T01:17:04;15.30;99.90
52979;DHT22;51106;53.186;6.598;2022-08-21T01:19:09;15.30;99.90
52979;DHT22;51106;53.186;6.598;2022-08-21T01:21:16;15.30;99.90
52979;DHT22;51106;53.186;6.598;2022-08-21T01:23:20;15.30;99.90
52979;DHT22;51106;53.186;6.598;2022-08-21T01:25:22;15.20;99.90
52979;DHT22;51106;53.186;6.598;2022-08-21T01:27:24;15.20;99.90
52979;DHT22;51106;53.186;6.598;2022-08-21T01:29:43;15.20;99.90
52979;DHT22;51106;53.186;6.598;2022-08-21T01:31:46;15.20;99.90
52979;DHT22;51106;53.186;6.598;2022-08-21T01:33:48;15.20;99.90
52979;DHT22;51106;53.186;6.598;2022-08-21T01:35:50;15.20;99.90
52979;DHT22;51106;53.186;6.598;2022-08-21T01:37:52;15.20;99.90
52979;DHT22;51106;53.186;6.598;2022-08-21T01:39:54;15.20;99.90
52979;DHT22;51106;53.186;6.598;2022-08-21T01:41:57;15.10;99.90
52979;DHT22;51106;53.186;6.598;2022-08-21T01:43:59;15.10;99.90
52979;DHT22;51106;53.186;6.598;2022-08-21T01:46:03;15.20;99.90
52979;DHT22;51106;53.186;6.598;2022-08-21T01:48:05;15.10;99.90
52979;DHT22;51106;53.186;6.598;2022-08-21T01:50:10;15.10;99.90
52979;DHT22;51106;53.186;6.598;2022-08-21T01:52:12;15.10;99.90
52979;DHT22;51106;53.186;6.598;2022-08-21T01:54:14;15.20;99.90
52979;DHT22;51106;53.186;6.598;2022-08-21T01:56:16;15.10;99.90
52979;DHT22;51106;53.186;6.598;2022-08-21T01:58:18;15.10;99.90
52979;DHT22;51106;53.186;6.598;2022-08-21T02:00:21;15.00;99.90
52979;DHT22;51106;53.186;6.598;2022-08-21T02:02:29;15.10;99.90
52979;DHT22;51106;53.186;6.598;2022-08-21T02:04:32;15.00;99.90
52979;DHT22;51106;53.186;6.598;2022-08-21T02:06:35;15.10;99.90
52979;DHT22;51106;53.186;6.598;2022-08-21T02:08:37;15.10;99.90
52979;DHT22;51106;53.186;6.598;2022-08-21T02:10:39;15.10;99.90
52979;DHT22;51106;53.186;6.598;2022-08-21T02:12:50;15.10;99.90
52979;DHT22;51106;53.186;6.598;2022-08-21T02:14:52;15.10;99.90
52979;DHT22;51106;53.186;6.598;2022-08-21T02:16:54;15.30;99.90
52979;DHT22;51106;53.186;6.598;2022-08-21T02:19:09;15.00;99.90
52979;DHT22;51106;53.186;6.598;2022-08-21T02:21:12;15.10;99.90
52979;DHT22;51106;53.186;6.598;2022-08-21T02:23:14;15.10;99.90
52979;DHT22;51106;53.186;6.598;2022-08-21T02:25:21;15.10;99.90
52979;DHT22;51106;53.186;6.598;2022-08-21T02:27:24;15.10;99.90
52979;DHT22;51106;53.186;6.598;2022-08-21T02:29:28;15.10;99.90
52979;DHT22;51106;53.186;6.598;2022-08-21T02:31:30;15.10;99.90
52979;DHT22;51106;53.186;6.598;2022-08-21T02:33:33;15.10;99.90
52979;DHT22;51106;53.186;6.598;2022-08-21T02:35:36;15.10;99.90
52979;DHT22;51106;53.186;6.598;2022-08-21T02:39:45;15.20;99.90
52979;DHT22;51106;53.186;6.598;2022-08-21T02:41:47;15.10;99.90
52979;DHT22;51106;53.186;6.598;2022-08-21T02:43:50;15.10;99.90
52979;DHT22;51106;53.186;6.598;2022-08-21T02:45:53;15.20;99.90
52979;DHT22;51106;53.186;6.598;2022-08-21T02:48:03;15.20;99.90
52979;DHT22;51106;53.186;6.598;2022-08-21T02:50:07;15.10;99.90
52979;DHT22;51106;53.186;6.598;2022-08-21T02:52:09;15.10;99.90
52979;DHT22;51106;53.186;6.598;2022-08-21T02:54:13;15.20;99.90
52979;DHT22;51106;53.186;6.598;2022-08-21T02:56:17;15.20;99.90
52979;DHT22;51106;53.186;6.598;2022-08-21T02:58:24;15.10;99.90
52979;DHT22;51106;53.186;6.598;2022-08-21T03:00:29;15.10;99.90
52979;DHT22;51106;53.186;6.598;2022-08-21T03:02:31;15.10;99.90
52979;DHT22;51106;53.186;6.598;2022-08-21T03:04:33;15.10;99.90
52979;DHT22;51106;53.186;6.598;2022-08-21T03:06:35;15.10;99.90
52979;DHT22;51106;53.186;6.598;2022-08-21T03:08:38;15.10;99.90
52979;DHT22;51106;53.186;6.598;2022-08-21T03:10:43;15.10;99.90
52979;DHT22;51106;53.186;6.598;2022-08-21T03:12:46;15.10;99.90
52979;DHT22;51106;53.186;6.598;2022-08-21T03:14:48;15.10;99.90
52979;DHT22;51106;53.186;6.598;2022-08-21T03:16:50;15.10;99.90
52979;DHT22;51106;53.186;6.598;2022-08-21T03:18:53;15.10;99.90
52979;DHT22;51106;53.186;6.598;2022-08-21T03:20:55;15.10;99.90
52979;DHT22;51106;53.186;6.598;2022-08-21T03:22:56;15.10;99.90
52979;DHT22;51106;53.186;6.598;2022-08-21T03:25:00;15.10;99.90
52979;DHT22;51106;53.186;6.598;2022-08-21T03:27:07;15.00;99.90
52979;DHT22;51106;53.186;6.598;2022-08-21T03:29:10;15.00;99.90
52979;DHT22;51106;53.186;6.598;2022-08-21T03:31:12;15.00;99.90
52979;DHT22;51106;53.186;6.598;2022-08-21T03:33:14;15.10;99.90
52979;DHT22;51106;53.186;6.598;2022-08-21T03:35:17;15.00;99.90
52979;DHT22;51106;53.186;6.598;2022-08-21T03:37:19;15.00;99.90
52979;DHT22;51106;53.186;6.598;2022-08-21T03:39:21;15.00;99.90
52979;DHT22;51106;53.186;6.598;2022-08-21T03:41:23;15.00;99.90
52979;DHT22;51106;53.186;6.598;2022-08-21T03:43:26;15.00;99.90
52979;DHT22;51106;53.186;6.598;2022-08-21T03:45:35;15.10;99.90
52979;DHT22;51106;53.186;6.598;2022-08-21T03:47:37;15.00;99.90
52979;DHT22;51106;53.186;6.598;2022-08-21T03:49:39;15.00;99.90
52979;DHT22;51106;53.186;6.598;2022-08-21T03:51:41;15.00;99.90
52979;DHT22;51106;53.186;6.598;2022-08-21T03:53:44;15.00;99.90
52979;DHT22;51106;53.186;6.598;2022-08-21T03:55:48;15.00;99.90
52979;DHT22;51106;53.186;6.598;2022-08-21T03:57:50;14.90;99.90
52979;DHT22;51106;53.186;6.598;2022-08-21T03:59:52;14.90;99.90
52979;DHT22;51106;53.186;6.598;2022-08-21T04:01:56;14.80;99.90
52979;DHT22;51106;53.186;6.598;2022-08-21T04:03:59;14.90;99.90
52979;DHT22;51106;53.186;6.598;2022-08-21T04:06:01;14.90;99.90
52979;DHT22;51106;53.186;6.598;2022-08-21T04:08:05;14.90;99.90
52979;DHT22;51106;53.186;6.598;2022-08-21T04:10:07;14.90;99.90
52979;DHT22;51106;53.186;6.598;2022-08-21T04:12:09;14.90;99.90
52979;DHT22;51106;53.186;6.598;2022-08-21T04:14:11;14.90;99.90
52979;DHT22;51106;53.186;6.598;2022-08-21T04:16:14;14.90;99.90
52979;DHT22;51106;53.186;6.598;2022-08-21T04:18:16;14.90;99.90
52979;DHT22;51106;53.186;6.598;2022-08-21T04:20:19;15.00;99.90
52979;DHT22;51106;53.186;6.598;2022-08-21T04:22:21;14.90;99.90
52979;DHT22;51106;53.186;6.598;2022-08-21T04:24:23;14.90;99.90
52979;DHT22;51106;53.186;6.598;2022-08-21T04:26:30;14.90;99.90
52979;DHT22;51106;53.186;6.598;2022-08-21T04:28:32;14.90;99.90
52979;DHT22;51106;53.186;6.598;2022-08-21T04:30:35;14.90;99.90
52979;DHT22;51106;53.186;6.598;2022-08-21T04:32:37;14.90;99.90
52979;DHT22;51106;53.186;6.598;2022-08-21T04:34:39;14.90;99.90
52979;DHT22;51106;53.186;6.598;2022-08-21T04:36:41;14.90;99.90
52979;DHT22;51106;53.186;6.598;2022-08-21T04:38:43;14.80;99.90
52979;DHT22;51106;53.186;6.598;2022-08-21T04:40:45;14.80;99.90
52979;DHT22;51106;53.186;6.598;2022-08-21T04:43:01;14.80;99.90
52979;DHT22;51106;53.186;6.598;2022-08-21T04:45:03;14.80;99.90
52979;DHT22;51106;53.186;6.598;2022-08-21T04:47:08;14.90;99.90
52979;DHT22;51106;53.186;6.598;2022-08-21T04:49:10;14.90;99.90
52979;DHT22;51106;53.186;6.598;2022-08-21T04:51:19;14.80;99.90
52979;DHT22;51106;53.186;6.598;2022-08-21T04:55:34;14.90;99.90
52979;DHT22;51106;53.186;6.598;2022-08-21T04:57:36;14.90;99.90
52979;DHT22;51106;53.186;6.598;2022-08-21T04:59:51;14.90;99.90
52979;DHT22;51106;53.186;6.598;2022-08-21T05:01:54;14.90;99.90
52979;DHT22;51106;53.186;6.598;2022-08-21T05:03:59;14.90;99.90
52979;DHT22;51106;53.186;6.598;2022-08-21T05:06:05;14.90;99.90
52979;DHT22;51106;53.186;6.598;2022-08-21T05:08:09;15.00;99.90
52979;DHT22;51106;53.186;6.598;2022-08-21T05:10:14;15.00;99.90
52979;DHT22;51106;53.186;6.598;2022-08-21T05:12:16;15.00;99.90
52979;DHT22;51106;53.186;6.598;2022-08-21T05:14:18;15.00;99.90
52979;DHT22;51106;53.186;6.598;2022-08-21T05:16:21;15.00;99.90
52979;DHT22;51106;53.186;6.598;2022-08-21T05:18:38;15.10;99.90
52979;DHT22;51106;53.186;6.598;2022-08-21T05:20:40;15.10;99.90
52979;DHT22;51106;53.186;6.598;2022-08-21T05:22:42;15.10;99.90
52979;DHT22;51106;53.186;6.598;2022-08-21T05:24:44;15.20;99.90
52979;DHT22;51106;53.186;6.598;2022-08-21T05:26:46;15.20;99.90
52979;DHT22;51106;53.186;6.598;2022-08-21T05:28:49;15.20;99.90
52979;DHT22;51106;53.186;6.598;2022-08-21T05:30:51;15.20;99.90
52979;DHT22;51106;53.186;6.598;2022-08-21T05:32:58;15.30;99.90
52979;DHT22;51106;53.186;6.598;2022-08-21T05:35:01;15.40;99.90
52979;DHT22;51106;53.186;6.598;2022-08-21T05:37:04;15.30;99.90
52979;DHT22;51106;53.186;6.598;2022-08-21T05:39:08;15.40;99.90
52979;DHT22;51106;53.186;6.598;2022-08-21T05:41:10;15.50;99.90
52979;DHT22;51106;53.186;6.598;2022-08-21T05:43:13;15.40;99.90
52979;DHT22;51106;53.186;6.598;2022-08-21T05:45:15;15.60;99.90
52979;DHT22;51106;53.186;6.598;2022-08-21T05:47:38;15.60;99.90
52979;DHT22;51106;53.186;6.598;2022-08-21T05:49:41;15.70;99.90
52979;DHT22;51106;53.186;6.598;2022-08-21T05:51:42;15.70;99.90
52979;DHT22;51106;53.186;6.598;2022-08-21T05:53:44;15.80;99.90
52979;DHT22;51106;53.186;6.598;2022-08-21T05:55:47;15.80;99.90
52979;DHT22;51106;53.186;6.598;2022-08-21T05:57:49;15.90;99.90
52979;DHT22;51106;53.186;6.598;2022-08-21T05:59:51;15.90;99.90
52979;DHT22;51106;53.186;6.598;2022-08-21T06:01:53;16.00;99.90
52979;DHT22;51106;53.186;6.598;2022-08-21T06:03:56;16.10;99.90
52979;DHT22;51106;53.186;6.598;2022-08-21T06:05:58;16.10;99.90
52979;DHT22;51106;53.186;6.598;2022-08-21T06:08:00;16.20;99.90
52979;DHT22;51106;53.186;6.598;2022-08-21T06:10:02;16.10;99.90
52979;DHT22;51106;53.186;6.598;2022-08-21T06:12:07;16.30;99.90
52979;DHT22;51106;53.186;6.598;2022-08-21T06:14:13;16.40;99.90
52979;DHT22;51106;53.186;6.598;2022-08-21T06:16:16;16.50;99.90
52979;DHT22;51106;53.186;6.598;2022-08-21T06:18:18;16.50;99.90
52979;DHT22;51106;53.186;6.598;2022-08-21T06:20:20;16.70;99.90
52979;DHT22;51106;53.186;6.598;2022-08-21T06:22:23;16.80;99.90
52979;DHT22;51106;53.186;6.598;2022-08-21T06:24:25;16.90;99.90
52979;DHT22;51106;53.186;6.598;2022-08-21T06:26:27;17.00;99.90
52979;DHT22;51106;53.186;6.598;2022-08-21T06:28:31;17.10;99.90
52979;DHT22;51106;53.186;6.598;2022-08-21T06:30:35;17.20;99.90
52979;DHT22;51106;53.186;6.598;2022-08-21T06:32:38;17.30;99.90
52979;DHT22;51106;53.186;6.598;2022-08-21T06:34:41;17.40;99.90
52979;DHT22;51106;53.186;6.598;2022-08-21T06:36:44;17.50;99.90
52979;DHT22;51106;53.186;6.598;2022-08-21T06:38:49;17.60;99.90
52979;DHT22;51106;53.186;6.598;2022-08-21T06:40:52;17.70;99.90
52979;DHT22;51106;53.186;6.598;2022-08-21T06:42:54;17.90;99.90
52979;DHT22;51106;53.186;6.598;2022-08-21T06:44:57;17.90;99.90
52979;DHT22;51106;53.186;6.598;2022-08-21T06:46:59;18.00;99.90
52979;DHT22;51106;53.186;6.598;2022-08-21T06:49:02;18.10;99.90
52979;DHT22;51106;53.186;6.598;2022-08-21T06:51:06;18.20;99.90
52979;DHT22;51106;53.186;6.598;2022-08-21T06:53:10;18.30;99.90
52979;DHT22;51106;53.186;6.598;2022-08-21T06:55:12;18.30;99.90
52979;DHT22;51106;53.186;6.598;2022-08-21T06:57:23;18.40;99.90
52979;DHT22;51106;53.186;6.598;2022-08-21T06:59:24;18.50;99.90
52979;DHT22;51106;53.186;6.598;2022-08-21T07:01:27;18.60;99.90
52979;DHT22;51106;53.186;6.598;2022-08-21T07:03:35;18.80;99.90
52979;DHT22;51106;53.186;6.598;2022-08-21T07:05:37;18.80;99.90
52979;DHT22;51106;53.186;6.598;2022-08-21T07:07:39;18.90;99.90
52979;DHT22;51106;53.186;6.598;2022-08-21T07:09:41;19.00;99.90
52979;DHT22;51106;53.186;6.598;2022-08-21T07:11:51;19.10;99.90
52979;DHT22;51106;53.186;6.598;2022-08-21T07:13:53;19.10;99.90
52979;DHT22;51106;53.186;6.598;2022-08-21T07:15:57;19.20;99.90
52979;DHT22;51106;53.186;6.598;2022-08-21T07:18:05;19.30;99.90
52979;DHT22;51106;53.186;6.598;2022-08-21T07:20:07;19.40;99.90
52979;DHT22;51106;53.186;6.598;2022-08-21T07:22:09;19.50;99.90
52979;DHT22;51106;53.186;6.598;2022-08-21T07:24:11;19.50;99.90
52979;DHT22;51106;53.186;6.598;2022-08-21T07:26:15;19.60;99.90
52979;DHT22;51106;53.186;6.598;2022-08-21T07:28:17;19.70;99.90
52979;DHT22;51106;53.186;6.598;2022-08-21T07:30:19;19.80;99.80
52979;DHT22;51106;53.186;6.598;2022-08-21T07:32:21;19.70;99.30
52979;DHT22;51106;53.186;6.598;2022-08-21T07:34:23;19.80;99.40
52979;DHT22;51106;53.186;6.598;2022-08-21T07:36:25;19.90;99.20
52979;DHT22;51106;53.186;6.598;2022-08-21T07:38:27;19.90;98.90
52979;DHT22;51106;53.186;6.598;2022-08-21T07:40:29;20.00;98.50
52979;DHT22;51106;53.186;6.598;2022-08-21T07:42:31;20.00;98.00
52979;DHT22;51106;53.186;6.598;2022-08-21T07:44:34;20.10;97.70
52979;DHT22;51106;53.186;6.598;2022-08-21T07:46:36;20.10;97.40
52979;DHT22;51106;53.186;6.598;2022-08-21T07:48:38;20.20;96.80
52979;DHT22;51106;53.186;6.598;2022-08-21T07:50:41;20.30;96.80
52979;DHT22;51106;53.186;6.598;2022-08-21T07:52:44;20.30;96.30
52979;DHT22;51106;53.186;6.598;2022-08-21T07:54:46;20.40;95.00
52979;DHT22;51106;53.186;6.598;2022-08-21T07:56:48;20.40;94.50
52979;DHT22;51106;53.186;6.598;2022-08-21T07:58:50;20.40;94.50
52979;DHT22;51106;53.186;6.598;2022-08-21T08:00:52;20.40;94.40
52979;DHT22;51106;53.186;6.598;2022-08-21T08:02:54;20.50;94.50
52979;DHT22;51106;53.186;6.598;2022-08-21T08:05:00;20.60;94.20
52979;DHT22;51106;53.186;6.598;2022-08-21T08:07:03;20.70;93.90
52979;DHT22;51106;53.186;6.598;2022-08-21T08:09:05;20.70;93.80
52979;DHT22;51106;53.186;6.598;2022-08-21T08:11:08;20.70;93.50
52979;DHT22;51106;53.186;6.598;2022-08-21T08:13:12;20.80;93.00
52979;DHT22;51106;53.186;6.598;2022-08-21T08:15:17;20.80;92.70
52979;DHT22;51106;53.186;6.598;2022-08-21T08:17:19;20.80;92.80
52979;DHT22;51106;53.186;6.598;2022-08-21T08:19:23;20.80;92.50
52979;DHT22;51106;53.186;6.598;2022-08-21T08:21:25;20.90;92.30
52979;DHT22;51106;53.186;6.598;2022-08-21T08:23:28;20.90;92.00
52979;DHT22;51106;53.186;6.598;2022-08-21T08:25:32;20.90;92.10
52979;DHT22;51106;53.186;6.598;2022-08-21T08:27:37;21.00;92.10
52979;DHT22;51106;53.186;6.598;2022-08-21T08:29:40;21.10;92.20
52979;DHT22;51106;53.186;6.598;2022-08-21T08:31:42;21.10;91.90
52979;DHT22;51106;53.186;6.598;2022-08-21T08:33:44;21.10;91.80
52979;DHT22;51106;53.186;6.598;2022-08-21T08:35:47;21.20;92.00
52979;DHT22;51106;53.186;6.598;2022-08-21T08:37:49;21.30;92.00
52979;DHT22;51106;53.186;6.598;2022-08-21T08:39:53;21.30;92.00
52979;DHT22;51106;53.186;6.598;2022-08-21T08:42:09;21.40;91.80
52979;DHT22;51106;53.186;6.598;2022-08-21T08:44:35;21.40;91.60
52979;DHT22;51106;53.186;6.598;2022-08-21T08:46:44;21.50;91.60
52979;DHT22;51106;53.186;6.598;2022-08-21T08:48:55;21.60;91.70
52979;DHT22;51106;53.186;6.598;2022-08-21T08:51:00;21.60;91.60
52979;DHT22;51106;53.186;6.598;2022-08-21T08:53:09;21.70;91.80
52979;DHT22;51106;53.186;6.598;2022-08-21T08:55:21;21.80;91.60
52979;DHT22;51106;53.186;6.598;2022-08-21T08:57:28;21.70;91.10
52979;DHT22;51106;53.186;6.598;2022-08-21T08:59:46;21.80;91.20
52979;DHT22;51106;53.186;6.598;2022-08-21T09:01:48;21.80;91.40
52979;DHT22;51106;53.186;6.598;2022-08-21T09:03:50;21.90;91.50
52979;DHT22;51106;53.186;6.598;2022-08-21T09:11:02;22.20;91.50
52979;DHT22;51106;53.186;6.598;2022-08-21T09:13:27;22.30;91.70
52979;DHT22;51106;53.186;6.598;2022-08-21T09:23:01;22.60;90.00
52979;DHT22;51106;53.186;6.598;2022-08-21T09:25:26;22.60;90.40
52979;DHT22;51106;53.186;6.598;2022-08-21T09:27:29;22.60;91.40
52979;DHT22;51106;53.186;6.598;2022-08-21T09:29:38;22.60;90.90
52979;DHT22;51106;53.186;6.598;2022-08-21T09:31:41;22.80;91.20
52979;DHT22;51106;53.186;6.598;2022-08-21T09:33:42;23.00;91.00
52979;DHT22;51106;53.186;6.598;2022-08-21T09:35:53;23.10;90.70
52979;DHT22;51106;53.186;6.598;2022-08-21T09:37:57;23.20;90.80
52979;DHT22;51106;53.186;6.598;2022-08-21T09:40:13;23.40;90.40
52979;DHT22;51106;53.186;6.598;2022-08-21T09:42:30;23.50;90.10
52979;DHT22;51106;53.186;6.598;2022-08-21T09:44:39;23.60;90.20
52979;DHT22;51106;53.186;6.598;2022-08-21T09:46:50;23.70;89.80
52979;DHT22;51106;53.186;6.598;2022-08-21T09:48:55;23.80;88.70
52979;DHT22;51106;53.186;6.598;2022-08-21T09:51:10;23.80;88.00
52979;DHT22;51106;53.186;6.598;2022-08-21T09:58:08;24.00;87.80
52979;DHT22;51106;53.186;6.598;2022-08-21T10:04:35;23.90;86.80
52979;DHT22;51106;53.186;6.598;2022-08-21T10:06:37;23.70;84.50
52979;DHT22;51106;53.186;6.598;2022-08-21T10:08:40;23.70;86.80
52979;DHT22;51106;53.186;6.598;2022-08-21T10:10:43;23.80;86.50
52979;DHT22;51106;53.186;6.598;2022-08-21T10:17:02;24.10;85.90
52979;DHT22;51106;53.186;6.598;2022-08-21T10:26:12;24.10;81.70
52979;DHT22;51106;53.186;6.598;2022-08-21T10:28:25;24.00;82.00
52979;DHT22;51106;53.186;6.598;2022-08-21T10:35:06;24.20;83.10
52979;DHT22;51106;53.186;6.598;2022-08-21T10:39:49;23.90;82.90
52979;DHT22;51106;53.186;6.598;2022-08-21T10:48:50;23.10;83.70
52979;DHT22;51106;53.186;6.598;2022-08-21T10:51:04;23.00;84.10
52979;DHT22;51106;53.186;6.598;2022-08-21T10:53:35;22.80;84.80
52979;DHT22;51106;53.186;6.598;2022-08-21T10:58:43;22.40;85.80
52979;DHT22;51106;53.186;6.598;2022-08-21T11:00:49;22.30;87.20
52979;DHT22;51106;53.186;6.598;2022-08-21T11:03:13;22.10;88.90
52979;DHT22;51106;53.186;6.598;2022-08-21T11:05:33;22.00;90.60
52979;DHT22;51106;53.186;6.598;2022-08-21T11:07:47;21.90;91.60
52979;DHT22;51106;53.186;6.598;2022-08-21T11:09:51;21.80;92.00
52979;DHT22;51106;53.186;6.598;2022-08-21T11:17:34;21.70;93.00
52979;DHT22;51106;53.186;6.598;2022-08-21T11:19:52;21.70;93.40
52979;DHT22;51106;53.186;6.598;2022-08-21T11:22:08;21.70;93.10
52979;DHT22;51106;53.186;6.598;2022-08-21T11:28:58;21.60;93.30
52979;DHT22;51106;53.186;6.598;2022-08-21T11:31:06;21.60;93.90
52979;DHT22;51106;53.186;6.598;2022-08-21T11:33:32;21.60;93.90
52979;DHT22;51106;53.186;6.598;2022-08-21T11:35:48;21.70;93.50
52979;DHT22;51106;53.186;6.598;2022-08-21T11:38:01;21.70;93.80
52979;DHT22;51106;53.186;6.598;2022-08-21T11:40:17;21.70;94.00
52979;DHT22;51106;53.186;6.598;2022-08-21T11:42:39;21.60;94.40
52979;DHT22;51106;53.186;6.598;2022-08-21T11:45:19;21.70;94.10
52979;DHT22;51106;53.186;6.598;2022-08-21T11:56:35;22.70;91.90
52979;DHT22;51106;53.186;6.598;2022-08-21T11:58:46;22.60;91.60
52979;DHT22;51106;53.186;6.598;2022-08-21T12:00:56;22.50;90.90
52979;DHT22;51106;53.186;6.598;2022-08-21T12:03:14;22.40;91.80
52979;DHT22;51106;53.186;6.598;2022-08-21T12:05:56;22.40;91.60
52979;DHT22;51106;53.186;6.598;2022-08-21T12:10:16;22.30;91.80
52979;DHT22;51106;53.186;6.598;2022-08-21T12:12:30;22.30;91.70
52979;DHT22;51106;53.186;6.598;2022-08-21T12:14:41;22.30;91.50
52979;DHT22;51106;53.186;6.598;2022-08-21T12:16:46;22.30;91.70
52979;DHT22;51106;53.186;6.598;2022-08-21T12:18:48;22.30;91.60
52979;DHT22;51106;53.186;6.598;2022-08-21T12:21:19;22.40;92.00
52979;DHT22;51106;53.186;6.598;2022-08-21T12:23:43;22.50;92.20
52979;DHT22;51106;53.186;6.598;2022-08-21T12:26:09;22.50;92.20
52979;DHT22;51106;53.186;6.598;2022-08-21T12:28:16;22.70;91.90
52979;DHT22;51106;53.186;6.598;2022-08-21T12:30:34;22.80;91.20
52979;DHT22;51106;53.186;6.598;2022-08-21T12:32:44;22.90;90.00
52979;DHT22;51106;53.186;6.598;2022-08-21T12:34:58;23.00;90.30
52979;DHT22;51106;53.186;6.598;2022-08-21T12:37:09;23.20;88.30
52979;DHT22;51106;53.186;6.598;2022-08-21T12:39:15;23.50;89.10
52979;DHT22;51106;53.186;6.598;2022-08-21T12:41:34;23.80;82.60
52979;DHT22;51106;53.186;6.598;2022-08-21T12:43:40;23.70;76.30
52979;DHT22;51106;53.186;6.598;2022-08-21T12:45:45;23.50;79.20
52979;DHT22;51106;53.186;6.598;2022-08-21T12:48:06;23.40;79.10
52979;DHT22;51106;53.186;6.598;2022-08-21T12:50:16;23.10;79.80
52979;DHT22;51106;53.186;6.598;2022-08-21T12:52:32;22.90;80.50
52979;DHT22;51106;53.186;6.598;2022-08-21T12:54:42;22.90;81.10
52979;DHT22;51106;53.186;6.598;2022-08-21T12:57:00;23.10;83.10
52979;DHT22;51106;53.186;6.598;2022-08-21T12:59:05;23.30;85.40
52979;DHT22;51106;53.186;6.598;2022-08-21T13:01:27;23.40;78.60
52979;DHT22;51106;53.186;6.598;2022-08-21T13:03:30;23.40;80.00
52979;DHT22;51106;53.186;6.598;2022-08-21T13:05:35;23.40;77.30
52979;DHT22;51106;53.186;6.598;2022-08-21T13:07:38;23.30;77.10
52979;DHT22;51106;53.186;6.598;2022-08-21T13:10:33;23.20;77.50
52979;DHT22;51106;53.186;6.598;2022-08-21T13:12:17;23.10;77.40
52979;DHT22;51106;53.186;6.598;2022-08-21T13:14:42;23.00;78.50
52979;DHT22;51106;53.186;6.598;2022-08-21T13:16:53;23.00;81.30
52979;DHT22;51106;53.186;6.598;2022-08-21T13:21:13;23.20;83.80
52979;DHT22;51106;53.186;6.598;2022-08-21T13:23:23;23.20;83.30
52979;DHT22;51106;53.186;6.598;2022-08-21T13:25:28;23.20;82.50
52979;DHT22;51106;53.186;6.598;2022-08-21T13:27:31;23.20;81.80
52979;DHT22;51106;53.186;6.598;2022-08-21T13:29:33;23.20;79.00
52979;DHT22;51106;53.186;6.598;2022-08-21T13:31:40;23.00;78.70
52979;DHT22;51106;53.186;6.598;2022-08-21T13:33:44;23.00;79.60
52979;DHT22;51106;53.186;6.598;2022-08-21T13:35:49;22.90;79.70
52979;DHT22;51106;53.186;6.598;2022-08-21T13:37:53;22.90;80.90
52979;DHT22;51106;53.186;6.598;2022-08-21T13:39:56;22.80;81.30
52979;DHT22;51106;53.186;6.598;2022-08-21T13:42:01;22.80;81.20
52979;DHT22;51106;53.186;6.598;2022-08-21T13:46:22;22.70;80.30
52979;DHT22;51106;53.186;6.598;2022-08-21T13:48:30;22.70;80.50
52979;DHT22;51106;53.186;6.598;2022-08-21T13:50:37;22.70;81.60
52979;DHT22;51106;53.186;6.598;2022-08-21T13:52:49;22.70;82.60
52979;DHT22;51106;53.186;6.598;2022-08-21T13:54:58;22.70;82.30
52979;DHT22;51106;53.186;6.598;2022-08-21T13:57:02;22.70;82.70
52979;DHT22;51106;53.186;6.598;2022-08-21T13:59:04;22.70;83.00
52979;DHT22;51106;53.186;6.598;2022-08-21T14:01:21;22.70;82.70
52979;DHT22;51106;53.186;6.598;2022-08-21T14:03:34;22.70;81.80
52979;DHT22;51106;53.186;6.598;2022-08-21T14:05:44;22.70;82.10
52979;DHT22;51106;53.186;6.598;2022-08-21T14:07:47;22.70;80.60
52979;DHT22;51106;53.186;6.598;2022-08-21T14:09:52;22.80;81.30
52979;DHT22;51106;53.186;6.598;2022-08-21T14:11:56;22.80;78.20
52979;DHT22;51106;53.186;6.598;2022-08-21T14:14:05;22.80;79.80
52979;DHT22;51106;53.186;6.598;2022-08-21T14:18:18;22.70;80.30
52979;DHT22;51106;53.186;6.598;2022-08-21T14:20:30;22.60;79.70
52979;DHT22;51106;53.186;6.598;2022-08-21T14:22:45;22.60;79.80
52979;DHT22;51106;53.186;6.598;2022-08-21T14:24:47;22.60;80.70
52979;DHT22;51106;53.186;6.598;2022-08-21T14:27:06;22.60;82.00
52979;DHT22;51106;53.186;6.598;2022-08-21T14:29:12;22.60;82.40
52979;DHT22;51106;53.186;6.598;2022-08-21T14:31:20;22.60;81.90
52979;DHT22;51106;53.186;6.598;2022-08-21T14:33:31;22.70;82.40
52979;DHT22;51106;53.186;6.598;2022-08-21T14:35:34;22.70;82.20
52979;DHT22;51106;53.186;6.598;2022-08-21T14:37:36;22.70;78.00